createdAt,value
2019-04-27T00:00:10.333Z,10.93
2019-04-27T00:02:47.938Z,8.60
2019-04-27T00:05:35.343Z,9.17
2019-04-27T00:08:13.966Z,9.33
2019-04-27T00:11:06.954Z,8.37
2019-04-27T00:13:36.334Z,8.73
2019-04-27T00:16:24.515Z,8.70
2019-04-27T00:19:13.302Z,8.10
2019-04-27T00:21:53.163Z,8.93
2019-04-27T00:24:23.544Z,8.83
2019-04-27T00:26:54.069Z,10.60
2019-04-27T00:29:25.809Z,8.97
2019-04-27T00:31:55.751Z,14.10
2019-04-27T00:34:25.342Z,13.47
2019-04-27T00:37:13.723Z,11.90
2019-04-27T00:40:11.369Z,13.27
2019-04-27T00:42:40.941Z,13.27
2019-04-27T00:45:11.151Z,15.23
2019-04-27T00:47:48.375Z,13.60
2019-04-27T00:50:13.353Z,12.70
2019-04-27T00:52:43.036Z,12.97
2019-04-27T00:55:13.305Z,13.23
2019-04-27T00:58:00.678Z,13.33
2019-04-27T01:00:51.894Z,13.90
2019-04-27T01:03:30.000Z,13.03
2019-04-27T01:05:59.518Z,13.37
2019-04-27T01:08:29.015Z,13.57
2019-04-27T01:10:58.541Z,13.87
2019-04-27T01:13:31.286Z,12.87
2019-04-27T01:16:01.905Z,13.97
2019-04-27T01:18:31.379Z,15.80
2019-04-27T01:21:00.913Z,15.00
2019-04-27T01:23:30.464Z,12.97
2019-04-27T01:26:22.738Z,13.67
2019-04-27T01:28:59.102Z,12.87
2019-04-27T01:31:29.392Z,13.13
2019-04-27T01:33:59.057Z,14.40
2019-04-27T01:36:29.166Z,13.47
2019-04-27T01:38:59.534Z,13.43
2019-04-27T01:41:29.223Z,12.33
2019-04-27T01:43:59.115Z,12.77
2019-04-27T01:46:29.603Z,15.20
2019-04-27T01:48:59.203Z,13.83
2019-04-27T01:51:29.443Z,13.87
2019-04-27T01:53:59.447Z,15.67
2019-04-27T01:56:29.460Z,13.67
2019-04-27T01:58:59.583Z,13.10
2019-04-27T02:01:38.866Z,13.67
2019-04-27T02:04:29.940Z,15.40
2019-04-27T02:07:00.785Z,13.40
2019-04-27T02:09:30.292Z,13.97
2019-04-27T02:12:02.601Z,14.00
2019-04-27T02:14:32.111Z,21.53
2019-04-27T02:17:01.757Z,16.17
2019-04-27T02:19:31.544Z,14.53
2019-04-27T02:22:01.041Z,17.57
2019-04-27T02:24:30.585Z,15.27
2019-04-27T02:27:00.373Z,21.80
2019-04-27T02:29:48.784Z,13.87
2019-04-27T02:32:40.325Z,14.97
2019-04-27T02:35:13.173Z,14.77
2019-04-27T02:37:42.705Z,15.43
2019-04-27T02:40:42.151Z,17.53
2019-04-27T02:43:10.424Z,14.30
2019-04-27T02:45:40.409Z,14.40
2019-04-27T02:48:10.078Z,15.83
2019-04-27T02:50:40.049Z,15.07
2019-04-27T02:53:11.034Z,14.63
2019-04-27T02:55:40.884Z,15.20
2019-04-27T02:58:12.973Z,14.77
2019-04-27T03:00:41.628Z,17.83
2019-04-27T03:03:12.709Z,15.60
2019-04-27T03:05:42.233Z,17.37
2019-04-27T03:08:11.755Z,15.27
2019-04-27T03:10:41.300Z,13.97
2019-04-27T03:13:30.458Z,14.87
2019-04-27T03:16:23.231Z,17.97
2019-04-27T03:19:18.229Z,14.63
2019-04-27T03:22:05.086Z,17.10
2019-04-27T03:24:52.498Z,15.53
2019-04-27T03:27:23.435Z,16.47
2019-04-27T03:29:52.942Z,14.43
2019-04-27T03:32:23.220Z,17.63
2019-04-27T03:34:53.000Z,14.77
2019-04-27T03:37:22.455Z,15.70
2019-04-27T03:39:52.106Z,15.13
2019-04-27T03:42:21.702Z,16.53
2019-04-27T03:44:51.258Z,15.00
2019-04-27T03:47:20.745Z,14.93
2019-04-27T03:49:50.913Z,15.23
2019-04-27T03:52:30.056Z,15.90
2019-04-27T03:55:04.831Z,17.23
2019-04-27T03:58:02.200Z,14.50
2019-04-27T04:00:31.748Z,14.43
2019-04-27T04:03:01.228Z,14.90
2019-04-27T04:05:31.594Z,16.13
2019-04-27T04:08:01.199Z,15.77
2019-04-27T04:10:32.301Z,15.63
2019-04-27T04:13:10.898Z,14.17
2019-04-27T04:16:07.629Z,16.63
2019-04-27T04:19:01.812Z,13.97
2019-04-27T04:21:31.427Z,14.07
2019-04-27T04:24:01.471Z,15.03
2019-04-27T04:26:32.873Z,14.27
2019-04-27T04:29:02.425Z,13.13
2019-04-27T04:31:33.090Z,14.47
2019-04-27T04:34:03.051Z,14.83
2019-04-27T04:36:32.610Z,15.47
2019-04-27T04:39:02.146Z,16.23
2019-04-27T04:41:51.036Z,15.00
2019-04-27T04:44:40.141Z,15.70
2019-04-27T04:47:16.084Z,14.40
2019-04-27T04:49:45.596Z,16.77
2019-04-27T04:52:15.122Z,14.93
2019-04-27T04:54:44.618Z,13.73
2019-04-27T04:57:14.463Z,14.20
2019-04-27T04:59:44.016Z,14.60
2019-04-27T05:02:13.477Z,15.40
2019-04-27T05:04:42.989Z,13.57
2019-04-27T05:07:12.468Z,15.33
2019-04-27T05:09:42.029Z,15.13
2019-04-27T05:12:11.611Z,14.97
2019-04-27T05:14:41.130Z,14.80
2019-04-27T05:17:10.693Z,13.47
2019-04-27T05:19:40.231Z,14.40
2019-04-27T05:22:09.738Z,17.10
2019-04-27T05:24:39.411Z,16.17
2019-04-27T05:27:09.287Z,13.27
2019-04-27T05:29:39.041Z,15.60
2019-04-27T05:32:09.108Z,18.67
2019-04-27T05:34:39.492Z,13.20
2019-04-27T05:37:09.112Z,15.23
2019-04-27T05:39:39.024Z,14.03
2019-04-27T05:42:12.476Z,13.40
2019-04-27T05:45:06.343Z,13.10
2019-04-27T05:47:43.392Z,14.27
2019-04-27T05:50:18.273Z,13.73
2019-04-27T05:52:49.517Z,15.33
2019-04-27T05:55:19.216Z,14.83
2019-04-27T05:57:49.103Z,15.43
2019-04-27T06:00:21.061Z,17.43
2019-04-27T06:02:50.573Z,15.37
2019-04-27T06:05:22.620Z,13.40
2019-04-27T06:07:51.273Z,15.30
2019-04-27T06:10:21.023Z,14.77
2019-04-27T06:12:50.546Z,16.27
2019-04-27T06:15:20.078Z,15.90
2019-04-27T06:17:49.729Z,12.03
2019-04-27T06:20:19.235Z,17.77
2019-04-27T06:22:48.958Z,14.05
2019-04-27T06:25:21.438Z,14.60
2019-04-27T06:27:50.053Z,15.35
2019-04-27T06:30:19.527Z,11.63
2019-04-27T06:32:49.539Z,10.72
2019-04-27T06:35:19.563Z,11.35
2019-04-27T06:37:49.337Z,14.38
2019-04-27T06:40:18.896Z,13.05
2019-04-27T06:42:51.408Z,12.20
2019-04-27T06:45:20.896Z,12.73
2019-04-27T06:47:51.227Z,10.25
2019-04-27T06:50:20.997Z,9.13
2019-04-27T06:52:50.514Z,9.90
2019-04-27T06:55:20.162Z,10.75
2019-04-27T06:57:49.703Z,10.98
2019-04-27T07:00:19.248Z,10.93
2019-04-27T07:02:49.278Z,11.40
2019-04-27T07:05:20.366Z,11.80
2019-04-27T07:07:50.101Z,10.55
2019-04-27T07:10:19.646Z,9.48
2019-04-27T07:12:49.251Z,10.82
2019-04-27T07:15:20.411Z,11.83
2019-04-27T07:17:50.087Z,10.80
2019-04-27T07:20:25.913Z,10.48
2019-04-27T07:22:55.431Z,10.75
2019-04-27T07:25:24.968Z,10.85
2019-04-27T07:27:54.450Z,10.05
2019-04-27T07:30:24.002Z,10.15
2019-04-27T07:32:53.510Z,11.03
2019-04-27T07:35:23.042Z,9.65
2019-04-27T07:37:52.511Z,8.35
2019-04-27T07:40:22.040Z,9.10
2019-04-27T07:42:55.337Z,10.23
2019-04-27T07:45:34.826Z,7.47
2019-04-27T07:48:05.574Z,9.38
2019-04-27T07:50:35.147Z,8.80
2019-04-27T07:53:04.706Z,9.28
2019-04-27T07:55:47.212Z,8.83
2019-04-27T07:58:16.880Z,7.20
2019-04-27T08:00:46.335Z,9.33
2019-04-27T08:03:15.853Z,7.83
2019-04-27T08:05:45.381Z,8.00
2019-04-27T08:08:14.889Z,7.55
2019-04-27T08:10:44.425Z,7.58
2019-04-27T08:13:14.007Z,6.78
2019-04-27T08:15:49.604Z,6.97
2019-04-27T08:18:33.573Z,7.22
2019-04-27T08:21:03.144Z,7.30
2019-04-27T08:23:32.658Z,6.97
2019-04-27T08:26:03.910Z,7.62
2019-04-27T08:28:44.285Z,7.03
2019-04-27T08:31:30.911Z,7.55
2019-04-27T08:34:00.516Z,8.15
2019-04-27T08:36:30.059Z,7.60
2019-04-27T08:38:59.535Z,6.95
2019-04-27T08:41:30.709Z,7.47
2019-04-27T08:44:00.264Z,7.12
2019-04-27T08:46:29.809Z,7.75
2019-04-27T08:48:59.306Z,6.72
2019-04-27T08:51:33.382Z,5.90
2019-04-27T08:54:03.361Z,5.47
2019-04-27T08:56:32.877Z,6.30
2019-04-27T08:59:02.382Z,5.85
2019-04-27T09:01:31.917Z,5.75
2019-04-27T09:04:01.427Z,6.47
2019-04-27T09:06:31.239Z,6.50
2019-04-27T09:09:15.382Z,6.92
2019-04-27T09:12:05.403Z,6.22
2019-04-27T09:14:45.380Z,5.40
2019-04-27T09:17:32.199Z,5.92
2019-04-27T09:20:18.686Z,5.78
2019-04-27T09:22:49.296Z,5.05
2019-04-27T09:25:19.311Z,5.03
2019-04-27T09:27:49.371Z,4.53
2019-04-27T09:30:19.193Z,4.55
2019-04-27T09:32:48.740Z,3.92
2019-04-27T09:35:18.238Z,3.77
2019-04-27T09:37:47.840Z,4.03
2019-04-27T09:40:17.434Z,3.40
2019-04-27T09:42:48.491Z,3.15
2019-04-27T09:45:18.018Z,3.52
2019-04-27T09:47:47.583Z,2.70
2019-04-27T09:50:17.290Z,3.33
2019-04-27T09:52:46.861Z,2.55
2019-04-27T09:55:16.382Z,2.55
2019-04-27T09:57:46.514Z,1.40
2019-04-27T10:00:16.296Z,1.70
2019-04-27T10:02:46.614Z,1.90
2019-04-27T10:05:17.179Z,2.17
2019-04-27T10:07:47.649Z,1.90
2019-04-27T10:10:18.329Z,1.65
2019-04-27T10:12:47.825Z,1.67
2019-04-27T10:15:17.735Z,1.17
2019-04-27T10:17:47.270Z,1.20
2019-04-27T10:20:16.877Z,1.77
2019-04-27T10:22:46.508Z,1.27
2019-04-27T10:25:26.640Z,1.57
2019-04-27T10:27:59.110Z,1.77
2019-04-27T10:30:29.453Z,0.90
2019-04-27T10:32:58.970Z,1.55
2019-04-27T10:35:29.499Z,1.90
2019-04-27T10:37:59.017Z,1.27
2019-04-27T10:40:28.518Z,1.50
2019-04-27T10:42:58.018Z,1.72
2019-04-27T10:45:27.535Z,1.32
2019-04-27T10:47:57.009Z,1.37
2019-04-27T10:50:26.730Z,1.00
2019-04-27T10:52:58.903Z,1.12
2019-04-27T10:55:27.394Z,0.78
2019-04-27T10:57:56.878Z,1.40
2019-04-27T11:00:34.169Z,1.10
2019-04-27T11:03:03.669Z,1.00
2019-04-27T11:05:39.961Z,0.98
2019-04-27T11:08:09.455Z,1.10
2019-04-27T11:10:38.994Z,0.93
2019-04-27T11:13:08.541Z,1.25
2019-04-27T11:15:37.335Z,1.17
2019-04-27T11:18:06.869Z,0.88
2019-04-27T11:20:36.385Z,0.93
2019-04-27T11:23:09.242Z,1.20
2019-04-27T11:25:37.010Z,1.20
2019-04-27T11:28:06.499Z,0.80
2019-04-27T11:30:36.092Z,1.10
2019-04-27T11:33:06.245Z,1.00
2019-04-27T11:35:51.670Z,1.12
2019-04-27T11:38:21.168Z,1.00
2019-04-27T11:40:50.670Z,1.40
2019-04-27T11:43:20.189Z,0.80
2019-04-27T11:45:49.731Z,0.98
2019-04-27T11:48:19.202Z,0.98
2019-04-27T11:50:48.695Z,0.70
2019-04-27T11:53:22.757Z,0.90
2019-04-27T11:55:49.384Z,0.80
2019-04-27T11:58:18.890Z,1.00
2019-04-27T12:00:48.428Z,0.90
2019-04-27T12:03:17.934Z,1.20
2019-04-27T12:05:47.468Z,1.00
2019-04-27T12:08:16.969Z,0.68
2019-04-27T12:10:48.368Z,0.60
2019-04-27T12:13:18.030Z,0.75
2019-04-27T12:15:47.556Z,0.75
2019-04-27T12:18:17.097Z,0.80
2019-04-27T12:20:46.584Z,0.80
2019-04-27T12:23:16.500Z,0.78
2019-04-27T12:25:46.279Z,0.98
2019-04-27T12:28:25.759Z,0.75
2019-04-27T12:31:09.088Z,0.80
2019-04-27T12:33:38.908Z,1.12
2019-04-27T12:36:08.598Z,0.82
2019-04-27T12:38:38.108Z,0.80
2019-04-27T12:41:07.630Z,0.85
2019-04-27T12:43:37.470Z,0.70
2019-04-27T12:46:07.401Z,0.70
2019-04-27T12:48:37.490Z,0.55
2019-04-27T12:51:07.152Z,0.90
2019-04-27T12:53:50.596Z,0.80
2019-04-27T12:56:22.807Z,0.62
2019-04-27T12:59:02.883Z,0.95
2019-04-27T13:01:32.382Z,0.80
2019-04-27T13:04:01.899Z,0.68
2019-04-27T13:06:31.399Z,0.42
2019-04-27T13:09:00.900Z,0.70
2019-04-27T13:11:30.386Z,0.70
2019-04-27T13:13:59.900Z,0.57
2019-04-27T13:16:30.516Z,0.60
2019-04-27T13:19:00.109Z,0.50
2019-04-27T13:21:29.594Z,0.75
2019-04-27T13:24:04.109Z,0.70
2019-04-27T13:26:30.265Z,0.70
2019-04-27T13:28:59.782Z,0.70
2019-04-27T13:31:29.305Z,0.50
2019-04-27T13:33:58.791Z,0.60
2019-04-27T13:36:28.326Z,0.90
2019-04-27T13:38:57.831Z,0.90
2019-04-27T13:41:32.597Z,0.80
2019-04-27T13:43:58.497Z,1.20
2019-04-27T13:46:34.703Z,0.80
2019-04-27T13:49:17.610Z,0.80
2019-04-27T13:51:51.251Z,0.90
2019-04-27T13:54:28.446Z,1.27
2019-04-27T13:56:56.295Z,1.02
2019-04-27T13:59:25.898Z,1.00
2019-04-27T14:01:55.412Z,0.80
2019-04-27T14:04:24.897Z,0.85
2019-04-27T14:06:54.397Z,0.70
2019-04-27T14:09:23.935Z,0.98
2019-04-27T14:11:57.358Z,0.82
2019-04-27T14:14:28.792Z,0.82
2019-04-27T14:16:57.990Z,0.95
2019-04-27T14:19:28.280Z,0.70
2019-04-27T14:21:59.090Z,0.90
2019-04-27T14:24:40.482Z,0.90
2019-04-27T14:27:11.122Z,1.00
2019-04-27T14:29:40.630Z,1.00
2019-04-27T14:32:11.205Z,0.95
2019-04-27T14:34:40.689Z,0.93
2019-04-27T14:37:10.190Z,1.17
2019-04-27T14:39:39.753Z,1.25
2019-04-27T14:42:09.282Z,1.10
2019-04-27T14:44:39.026Z,1.17
2019-04-27T14:47:08.593Z,1.25
2019-04-27T14:49:39.103Z,0.95
2019-04-27T14:52:09.613Z,1.10
2019-04-27T14:54:47.324Z,1.27
2019-04-27T14:57:10.484Z,1.15
2019-04-27T14:59:40.002Z,0.80
2019-04-27T15:02:09.760Z,0.75
2019-04-27T15:04:41.813Z,0.75
2019-04-27T15:07:10.804Z,0.65
2019-04-27T15:09:40.279Z,0.70
2019-04-27T15:12:09.802Z,0.57
2019-04-27T15:14:39.353Z,0.72
2019-04-27T15:17:12.399Z,0.93
2019-04-27T15:19:48.424Z,0.72
2019-04-27T15:22:23.128Z,0.90
2019-04-27T15:25:06.410Z,0.85
2019-04-27T15:27:30.906Z,0.82
2019-04-27T15:30:02.929Z,0.70
2019-04-27T15:32:42.232Z,0.95
2019-04-27T15:35:23.251Z,0.60
2019-04-27T15:37:57.165Z,0.80
2019-04-27T15:40:49.332Z,0.62
2019-04-27T15:43:22.972Z,0.75
2019-04-27T15:45:53.434Z,0.62
2019-04-27T15:48:25.084Z,0.72
2019-04-27T15:50:54.929Z,0.68
2019-04-27T15:53:24.438Z,0.80
2019-04-27T15:55:59.986Z,0.60
2019-04-27T15:58:26.124Z,0.98
2019-04-27T16:00:56.519Z,0.60
2019-04-27T16:03:31.095Z,0.80
2019-04-27T16:05:58.850Z,0.80
2019-04-27T16:08:28.789Z,0.93
2019-04-27T16:10:58.818Z,0.70
2019-04-27T16:13:32.691Z,0.80
2019-04-27T16:15:59.918Z,0.60
2019-04-27T16:18:32.508Z,0.60
2019-04-27T16:21:02.758Z,0.70
2019-04-27T16:23:33.585Z,0.70
2019-04-27T16:26:05.007Z,0.72
2019-04-27T16:28:34.254Z,0.82
2019-04-27T16:31:03.746Z,0.80
2019-04-27T16:33:33.285Z,0.72
2019-04-27T16:36:07.023Z,0.75
2019-04-27T16:38:57.099Z,0.80
2019-04-27T16:41:28.118Z,0.88
2019-04-27T16:43:58.175Z,0.90
2019-04-27T16:46:28.521Z,1.15
2019-04-27T16:48:59.494Z,0.80
2019-04-27T16:51:29.760Z,1.30
2019-04-27T16:54:00.370Z,1.12
2019-04-27T16:56:30.007Z,1.20
2019-04-27T16:59:11.410Z,1.00
2019-04-27T17:01:31.282Z,1.00
2019-04-27T17:04:00.822Z,1.30
2019-04-27T17:06:30.333Z,1.20
2019-04-27T17:09:05.419Z,1.40
2019-04-27T17:11:31.077Z,1.30
2019-04-27T17:14:34.753Z,1.12
2019-04-27T17:17:12.052Z,1.42
2019-04-27T17:19:51.572Z,1.70
2019-04-27T17:22:20.231Z,1.82
2019-04-27T17:24:49.854Z,1.70
2019-04-27T17:27:28.952Z,1.50
2019-04-27T17:29:58.099Z,1.70
2019-04-27T17:32:51.064Z,1.77
2019-04-27T17:35:20.689Z,1.72
2019-04-27T17:37:50.240Z,1.55
2019-04-27T17:40:19.890Z,1.90
2019-04-27T17:42:49.374Z,2.20
2019-04-27T17:45:21.358Z,1.90
2019-04-27T17:47:50.020Z,2.12
2019-04-27T17:50:25.163Z,1.77
2019-04-27T17:52:55.053Z,2.12
2019-04-27T17:55:24.299Z,2.20
2019-04-27T17:57:53.097Z,2.02
2019-04-27T18:00:22.794Z,1.10
2019-04-27T18:02:52.299Z,1.90
2019-04-27T18:05:21.821Z,1.37
2019-04-27T18:07:51.376Z,0.70
2019-04-27T18:10:24.160Z,0.40
2019-04-27T18:12:52.149Z,0.70
2019-04-27T18:15:21.655Z,0.60
2019-04-27T18:17:52.978Z,0.60
2019-04-27T18:20:24.751Z,0.65
2019-04-27T18:23:03.553Z,0.72
2019-04-27T18:25:40.435Z,0.70
2019-04-27T18:28:14.808Z,0.70
2019-04-27T18:30:54.623Z,0.80
2019-04-27T18:33:24.163Z,0.60
2019-04-27T18:35:59.193Z,0.70
2019-04-27T18:38:24.806Z,0.75
2019-04-27T18:40:54.328Z,0.85
2019-04-27T18:43:23.851Z,0.70
2019-04-27T18:45:53.327Z,0.70
2019-04-27T18:48:44.648Z,0.70
2019-04-27T18:51:30.524Z,0.65
2019-04-27T18:54:03.616Z,1.07
2019-04-27T18:56:33.457Z,1.10
2019-04-27T18:59:02.345Z,1.20
2019-04-27T19:01:32.970Z,1.07
2019-04-27T19:04:03.073Z,1.47
2019-04-27T19:06:32.669Z,1.32
2019-04-27T19:09:02.183Z,1.40
2019-04-27T19:11:31.723Z,1.20
2019-04-27T19:14:01.236Z,1.10
2019-04-27T19:16:30.727Z,1.25
2019-04-27T19:19:00.237Z,1.30
2019-04-27T19:21:29.798Z,1.50
2019-04-27T19:23:59.322Z,1.23
2019-04-27T19:26:54.514Z,1.40
2019-04-27T19:29:29.113Z,1.62
2019-04-27T19:31:59.940Z,1.52
2019-04-27T19:34:29.414Z,1.50
2019-04-27T19:36:59.296Z,1.40
2019-04-27T19:39:28.827Z,1.23
2019-04-27T19:42:03.457Z,1.70
2019-04-27T19:44:29.451Z,1.50
2019-04-27T19:47:00.201Z,1.60
2019-04-27T19:49:31.819Z,1.43
2019-04-27T19:52:01.146Z,1.20
2019-04-27T19:54:31.686Z,1.40
2019-04-27T19:57:01.197Z,1.60
2019-04-27T19:59:37.976Z,1.70
2019-04-27T20:02:11.985Z,1.60
2019-04-27T20:04:43.344Z,1.73
2019-04-27T20:07:12.821Z,1.80
2019-04-27T20:10:08.789Z,1.90
2019-04-27T20:12:38.349Z,2.20
2019-04-27T20:15:08.126Z,2.00
2019-04-27T20:17:37.603Z,1.67
2019-04-27T20:20:07.418Z,2.10
2019-04-27T20:22:36.915Z,2.33
2019-04-27T20:25:07.336Z,2.33
2019-04-27T20:27:45.968Z,2.30
2019-04-27T20:30:11.070Z,2.30
2019-04-27T20:32:40.791Z,2.73
2019-04-27T20:35:11.812Z,2.37
2019-04-27T20:37:41.586Z,2.80
2019-04-27T20:40:11.680Z,2.90
2019-04-27T20:42:41.645Z,3.60
2019-04-27T20:45:11.996Z,3.90
2019-04-27T20:47:41.597Z,4.67
2019-04-27T20:50:11.181Z,3.73
2019-04-27T20:52:59.639Z,3.60
2019-04-27T20:55:29.437Z,3.40
2019-04-27T20:58:02.351Z,4.33
2019-04-27T21:00:31.872Z,3.90
2019-04-27T21:03:18.831Z,4.93
2019-04-27T21:06:11.222Z,4.40
2019-04-27T21:08:41.777Z,4.90
2019-04-27T21:11:11.868Z,3.73
2019-04-27T21:13:41.485Z,4.20
2019-04-27T21:16:12.538Z,3.60
2019-04-27T21:18:42.135Z,4.17
2019-04-27T21:21:11.632Z,4.07
2019-04-27T21:23:41.537Z,4.20
2019-04-27T21:26:11.141Z,3.83
2019-04-27T21:28:42.912Z,4.93
2019-04-27T21:31:12.765Z,5.10
2019-04-27T21:33:42.347Z,4.10
2019-04-27T21:36:11.905Z,4.87
2019-04-27T21:38:43.006Z,4.53
2019-04-27T21:41:12.659Z,4.13
2019-04-27T21:43:43.720Z,4.50
2019-04-27T21:46:13.461Z,4.00
2019-04-27T21:48:42.951Z,4.03
2019-04-27T21:51:12.495Z,3.80
2019-04-27T21:53:53.085Z,4.17
2019-04-27T21:56:22.588Z,4.70
2019-04-27T21:58:52.065Z,3.73
2019-04-27T22:01:26.870Z,3.40
2019-04-27T22:03:56.261Z,3.80
2019-04-27T22:06:25.746Z,3.23
2019-04-27T22:08:55.278Z,3.30
2019-04-27T22:11:24.829Z,3.87
2019-04-27T22:13:54.329Z,4.03
2019-04-27T22:16:23.799Z,3.77
2019-04-27T22:18:53.299Z,4.07
2019-04-27T22:21:23.281Z,3.90
2019-04-27T22:23:57.574Z,3.90
2019-04-27T22:26:27.112Z,3.50
2019-04-27T22:28:56.605Z,4.20
2019-04-27T22:31:26.060Z,4.53
2019-04-27T22:33:55.609Z,4.37
2019-04-27T22:36:25.160Z,3.70
2019-04-27T22:38:56.862Z,4.03
2019-04-27T22:41:35.555Z,4.43
2019-04-27T22:44:31.620Z,4.70
2019-04-27T22:47:00.902Z,4.60
2019-04-27T22:49:31.280Z,3.37
2019-04-27T22:52:01.514Z,4.30
2019-04-27T22:54:31.953Z,4.40
2019-04-27T22:57:05.403Z,4.13
2019-04-27T22:59:54.418Z,4.53
2019-04-27T23:02:35.895Z,5.17
2019-04-27T23:05:07.176Z,4.77
2019-04-27T23:07:36.714Z,4.77
2019-04-27T23:10:07.281Z,5.23
2019-04-27T23:12:36.774Z,4.27
2019-04-27T23:15:09.118Z,3.93
2019-04-27T23:17:51.767Z,4.30
2019-04-27T23:20:21.390Z,4.77
2019-04-27T23:22:50.983Z,5.00
2019-04-27T23:25:20.457Z,5.00
2019-04-27T23:27:51.449Z,4.43
2019-04-27T23:30:22.577Z,4.40
2019-04-27T23:32:53.107Z,5.40
2019-04-27T23:35:22.676Z,5.43
2019-04-27T23:37:52.859Z,4.53
2019-04-27T23:40:22.593Z,4.20
2019-04-27T23:42:52.092Z,5.10
2019-04-27T23:45:22.472Z,5.43
2019-04-27T23:47:52.122Z,5.00
2019-04-27T23:50:23.430Z,4.47
2019-04-27T23:53:11.818Z,5.90
2019-04-27T23:55:42.072Z,4.43
2019-04-27T23:58:11.666Z,5.07
